Time;durP1;ratioP1;P1;durP2;ratioP2;P2;SDS_P1;SDS_P2;PMS_P1;PMS_P2;Temp;Humidity;BMP_temperature;BMP_pressure;BME280_temperature;BME280_humidity;BME280_pressure;Samples;Min_cycle;Max_cycle;Signal;HPM_P1;HPM_P2
2021/09/22 00:01:56;;;;;;;15.67;13.03;;;;;;;13.98;72.07;95512.94;5112817;28;20457;-81
2021/09/22 00:04:23;;;;;;;18.07;13.43;;;;;;;14.00;71.90;95514.47;5112628;28;20441;-80
2021/09/22 00:06:50;;;;;;;17.33;13.80;;;;;;;13.97;71.93;95509.47;5112665;28;20781;-80
2021/09/22 00:09:19;;;;;;;18.63;14.03;;;;;;;14.00;72.15;95513.63;5112606;28;20444;-80
2021/09/22 00:11:46;;;;;;;19.90;14.40;;;;;;;14.01;72.17;95500.31;5112443;28;20884;-80
2021/09/22 00:14:13;;;;;;;22.60;14.07;;;;;;;13.93;72.04;95500.16;5112657;28;20520;-80
2021/09/22 00:16:39;;;;;;;14.57;12.83;;;;;;;13.94;72.22;95493.91;5112632;28;20933;-80
2021/09/22 00:19:06;;;;;;;22.10;16.10;;;;;;;13.77;72.60;95502.47;5112760;28;20479;-79
2021/09/22 00:21:33;;;;;;;17.83;13.47;;;;;;;13.74;72.72;95493.00;5112758;28;20926;-81
2021/09/22 00:24:02;;;;;;;15.20;12.83;;;;;;;13.75;72.82;95485.94;5112407;28;20448;-80
2021/09/22 00:26:30;;;;;;;17.97;14.07;;;;;;;13.75;72.98;95497.31;5112467;28;20777;-81
2021/09/22 00:28:57;;;;;;;19.63;13.90;;;;;;;13.76;72.68;95487.59;5112500;28;20448;-80
2021/09/22 00:31:27;;;;;;;17.70;14.13;;;;;;;13.71;72.77;95490.66;5112616;28;20514;-80
2021/09/22 00:33:54;;;;;;;23.60;13.77;;;;;;;13.73;72.87;95487.88;5112547;28;20469;-80
2021/09/22 00:36:21;;;;;;;17.50;13.47;;;;;;;13.72;72.45;95489.69;5112526;28;20443;-80
2021/09/22 00:38:48;;;;;;;19.40;14.07;;;;;;;13.77;72.87;95486.63;5111993;28;20496;-80
2021/09/22 00:41:15;;;;;;;16.80;14.50;;;;;;;13.82;72.40;95482.63;5112272;28;20443;-80
2021/09/22 00:43:43;;;;;;;19.33;13.90;;;;;;;13.86;72.27;95477.91;5112382;28;20443;-80
2021/09/22 00:46:10;;;;;;;17.50;13.47;;;;;;;13.90;71.86;95484.59;5112698;28;21027;-80
2021/09/22 00:48:37;;;;;;;18.43;13.90;;;;;;;13.87;72.17;95469.00;5112479;28;20431;-80
2021/09/22 00:51:06;;;;;;;22.40;15.73;;;;;;;13.92;72.46;95477.38;5112387;28;20445;-80
2021/09/22 00:53:35;;;;;;;24.70;15.00;;;;;;;13.95;72.44;95479.75;5112002;28;20448;-80
2021/09/22 00:56:03;;;;;;;16.43;13.87;;;;;;;14.00;72.26;95464.34;5112261;28;20441;-80
2021/09/22 00:58:31;;;;;;;19.63;14.73;;;;;;;13.96;72.48;95465.56;5111931;28;20446;-80
2021/09/22 01:00:59;;;;;;;17.10;14.40;;;;;;;13.99;72.67;95446.84;5093061;28;20780;-79
2021/09/22 01:03:26;;;;;;;20.03;14.00;;;;;;;13.97;71.74;95454.06;5076493;28;20459;-80
2021/09/22 01:05:54;;;;;;;16.50;14.80;;;;;;;13.97;72.22;95456.69;5113694;28;21092;-80
2021/09/22 01:08:22;;;;;;;24.83;16.33;;;;;;;13.93;71.78;95455.31;5115747;28;20938;-80
2021/09/22 01:10:50;;;;;;;21.80;15.40;;;;;;;13.90;72.09;95447.66;5115776;28;20446;-80
2021/09/22 01:13:18;;;;;;;18.70;15.00;;;;;;;13.88;72.36;95445.16;5115831;28;20456;-79
2021/09/22 01:15:45;;;;;;;20.03;14.47;;;;;;;13.83;71.93;95442.06;5115792;28;20818;-81
2021/09/22 01:18:16;;;;;;;17.20;13.27;;;;;;;13.76;72.36;95445.41;5115860;28;20439;-80
2021/09/22 01:20:45;;;;;;;16.90;14.63;;;;;;;13.66;71.62;95437.47;5115421;28;20513;-79
2021/09/22 01:23:15;;;;;;;17.97;14.20;;;;;;;13.61;72.01;95437.88;5115845;28;20526;-80
2021/09/22 01:25:43;;;;;;;19.63;13.90;;;;;;;13.55;71.90;95438.41;5115463;28;20454;-80
2021/09/22 01:28:11;;;;;;;19.30;14.60;;;;;;;13.49;71.45;95433.66;5115475;28;20568;-80
2021/09/22 01:30:38;;;;;;;16.90;13.70;;;;;;;13.48;71.82;95432.00;5115636;28;20523;-80
2021/09/22 01:33:08;;;;;;;16.50;13.20;;;;;;;13.47;71.21;95432.97;5115512;28;20945;-80
2021/09/22 01:35:36;;;;;;;20.40;13.50;;;;;;;13.42;71.70;95422.00;5115420;28;20959;-80
2021/09/22 01:38:04;;;;;;;15.97;13.63;;;;;;;13.47;71.54;95430.34;5080126;28;20449;-80
2021/09/22 01:40:32;;;;;;;16.83;13.77;;;;;;;13.58;71.79;95432.84;5115419;28;20490;-80
2021/09/22 01:43:00;;;;;;;17.33;13.43;;;;;;;13.68;70.77;95432.06;5115229;28;20446;-80
2021/09/22 01:45:27;;;;;;;17.07;13.27;;;;;;;13.65;70.07;95427.91;5115278;28;20472;-80
2021/09/22 01:47:53;;;;;;;19.23;11.83;;;;;;;13.67;70.72;95419.84;5114854;28;20449;-80
2021/09/22 01:50:22;;;;;;;13.70;11.53;;;;;;;13.68;69.49;95422.34;5115292;28;20446;-80
2021/09/22 01:52:52;;;;;;;15.97;11.77;;;;;;;13.69;69.23;95423.19;5114851;28;20441;-80
2021/09/22 01:55:21;;;;;;;12.07;10.80;;;;;;;13.73;68.77;95428.03;5115566;28;20462;-80
2021/09/22 01:57:51;;;;;;;13.20;10.93;;;;;;;13.63;68.65;95424.56;5114836;28;20445;-80
2021/09/22 02:00:18;;;;;;;13.40;10.53;;;;;;;13.58;68.47;95424.94;5115269;28;20477;-80
2021/09/22 02:02:45;;;;;;;13.87;10.07;;;;;;;13.66;68.29;95423.47;5115220;28;20443;-80
2021/09/22 02:05:12;;;;;;;11.83;9.57;;;;;;;13.66;67.66;95426.09;5114811;28;20449;-81
2021/09/22 02:07:39;;;;;;;10.93;9.57;;;;;;;13.65;67.15;95425.25;5114578;28;20439;-79
2021/09/22 02:10:08;;;;;;;14.20;9.37;;;;;;;13.65;66.71;95430.53;5114556;28;20442;-79
2021/09/22 02:12:35;;;;;;;19.50;10.20;;;;;;;13.67;66.99;95427.75;5079138;28;20449;-80
2021/09/22 02:15:05;;;;;;;11.13;9.93;;;;;;;13.64;66.22;95421.78;5114627;28;20454;-80
2021/09/22 02:17:32;;;;;;;14.90;10.00;;;;;;;13.52;65.69;95414.94;5114218;28;20817;-80
2021/09/22 02:20:00;;;;;;;13.10;8.97;;;;;;;13.47;66.19;95411.06;5078785;28;20490;-79
2021/09/22 02:22:27;;;;;;;10.80;9.20;;;;;;;13.50;66.09;95414.25;5114735;28;20445;-80
2021/09/22 02:24:54;;;;;;;10.53;8.67;;;;;;;13.45;66.14;95419.09;5114307;28;20450;-80
2021/09/22 02:27:21;;;;;;;12.33;9.90;;;;;;;13.47;65.90;95425.06;5078773;28;20438;-80
2021/09/22 02:29:49;;;;;;;12.67;8.90;;;;;;;13.38;65.58;95425.03;5114294;28;20456;-79
2021/09/22 02:32:17;;;;;;;11.10;8.30;;;;;;;13.24;65.54;95418.31;5114593;28;20463;-80
2021/09/22 02:34:44;;;;;;;11.20;9.83;;;;;;;13.19;65.53;95423.16;5114596;28;20441;-80
2021/09/22 02:37:12;;;;;;;13.60;9.40;;;;;;;13.14;65.64;95422.69;5114214;28;20442;-80
2021/09/22 02:39:39;;;;;;;11.40;8.80;;;;;;;13.15;65.63;95427.00;5113902;28;20483;-80
2021/09/22 02:42:06;;;;;;;11.33;8.97;;;;;;;13.10;65.17;95422.13;5113985;28;20502;-80
2021/09/22 02:44:33;;;;;;;11.13;8.70;;;;;;;13.10;64.75;95427.41;5114275;28;20473;-80
2021/09/22 02:47:00;;;;;;;11.97;9.00;;;;;;;12.99;64.90;95417.78;5114472;28;20866;-80
2021/09/22 02:49:29;;;;;;;10.57;9.50;;;;;;;12.94;64.97;95421.78;5113999;28;20925;-80
2021/09/22 02:51:56;;;;;;;9.67;8.80;;;;;;;12.90;64.42;95415.94;5113981;28;20447;-80
2021/09/22 02:54:23;;;;;;;12.17;9.83;;;;;;;12.83;64.48;95408.69;5113649;28;20953;-80
2021/09/22 02:56:50;;;;;;;12.93;8.50;;;;;;;12.82;64.88;95418.41;5113882;28;20445;-80
2021/09/22 02:59:17;;;;;;;11.30;8.50;;;;;;;12.85;63.99;95422.56;5077642;28;20438;-80
2021/09/22 03:01:43;;;;;;;9.67;8.53;;;;;;;12.82;63.63;95421.03;5113588;28;20449;-80
2021/09/22 03:04:10;;;;;;;11.80;9.37;;;;;;;12.83;63.07;95413.97;5113872;28;20446;-79
2021/09/22 03:06:39;;;;;;;10.30;9.30;;;;;;;12.76;63.28;95411.03;5113440;28;20467;-80
2021/09/22 03:09:06;;;;;;;10.97;8.80;;;;;;;12.84;63.78;95420.91;5114161;28;20442;-80
2021/09/22 03:11:33;;;;;;;11.20;8.50;;;;;;;12.90;62.98;95418.56;5113571;28;20529;-80
2021/09/22 03:14:00;;;;;;;10.17;8.90;;;;;;;12.90;62.88;95421.19;5113324;28;20441;-80
2021/09/22 03:16:27;;;;;;;12.40;10.10;;;;;;;12.96;63.13;95415.41;5113588;28;20451;-80
2021/09/22 03:18:54;;;;;;;12.50;10.00;;;;;;;13.00;62.84;95411.53;5113375;28;20452;-80
2021/09/22 03:21:21;;;;;;;10.73;9.33;;;;;;;13.05;63.20;95415.59;5113510;28;20826;-79
2021/09/22 03:23:49;;;;;;;11.87;9.33;;;;;;;13.12;63.50;95414.09;5113276;28;20549;-80
2021/09/22 03:26:16;;;;;;;10.27;9.30;;;;;;;13.09;63.23;95415.19;5113235;28;20450;-80
2021/09/22 03:28:43;;;;;;;12.00;9.30;;;;;;;13.05;62.95;95413.81;5112505;28;20955;-80
2021/09/22 03:31:10;;;;;;;17.73;10.70;;;;;;;13.12;62.67;95414.94;5113360;28;20445;-80
2021/09/22 03:33:37;;;;;;;10.00;8.73;;;;;;;13.11;63.17;95422.97;5113063;28;20453;-80
2021/09/22 03:36:05;;;;;;;10.60;8.87;;;;;;;13.10;63.01;95421.31;5113142;28;20447;-80
2021/09/22 03:38:32;;;;;;;10.10;9.07;;;;;;;13.17;63.22;95411.88;5113292;28;20447;-80
2021/09/22 03:41:00;;;;;;;15.20;9.37;;;;;;;13.25;63.00;95415.56;5112826;28;20487;-80
2021/09/22 03:43:27;;;;;;;10.70;9.70;;;;;;;13.31;63.12;95416.84;5113211;28;20942;-79
2021/09/22 03:45:54;;;;;;;13.63;10.73;;;;;;;13.36;62.71;95414.63;5077189;28;20565;-79
2021/09/22 03:48:21;;;;;;;9.97;8.87;;;;;;;13.30;62.12;95413.38;5112969;28;20449;-80
2021/09/22 03:50:50;;;;;;;10.80;9.80;;;;;;;13.32;62.12;95407.97;5113004;28;20436;-79
2021/09/22 03:53:17;;;;;;;12.17;9.73;;;;;;;13.27;62.40;95402.25;5113289;28;20938;-80
2021/09/22 03:55:44;;;;;;;11.97;10.07;;;;;;;13.26;62.85;95403.22;5113236;28;20523;-80
2021/09/22 03:58:15;;;;;;;14.53;9.77;;;;;;;13.19;62.84;95408.19;5112904;28;20439;-80
2021/09/22 04:00:43;;;;;;;12.67;9.50;;;;;;;13.17;63.17;95406.63;5112782;28;20484;-80
2021/09/22 04:03:10;;;;;;;12.00;10.30;;;;;;;13.10;63.09;95405.50;5113281;28;20447;-85
2021/09/22 04:05:37;;;;;;;10.27;9.20;;;;;;;13.14;63.61;95393.72;5115099;28;20443;-85
2021/09/22 04:08:04;;;;;;;11.60;8.87;;;;;;;13.16;63.55;95383.88;5114497;28;20909;-84
2021/09/22 04:10:31;;;;;;;11.87;10.23;;;;;;;13.20;63.81;95387.94;5113777;28;20539;-79
2021/09/22 04:12:58;;;;;;;12.00;9.50;;;;;;;13.27;63.75;95383.78;5113313;28;20467;-79
2021/09/22 04:15:27;;;;;;;9.07;8.17;;;;;;;13.32;63.97;95390.34;5113282;28;20456;-79
2021/09/22 04:17:55;;;;;;;26.50;10.73;;;;;;;13.32;64.07;95392.16;5077432;28;20436;-79
2021/09/22 04:20:22;;;;;;;12.90;10.90;;;;;;;13.39;63.15;95388.00;5112233;28;20536;-80
2021/09/22 04:22:49;;;;;;;12.67;9.63;;;;;;;13.38;63.21;95398.69;5113082;28;20445;-79
2021/09/22 04:25:15;;;;;;;11.03;9.77;;;;;;;13.35;63.63;95383.13;5094012;28;20437;-79
2021/09/22 04:27:42;;;;;;;12.47;11.17;;;;;;;13.28;63.81;95372.28;5113227;28;20786;-79
2021/09/22 04:30:11;;;;;;;10.73;9.50;;;;;;;13.20;64.21;95374.75;5113379;28;20450;-79
2021/09/22 04:32:39;;;;;;;10.00;9.00;;;;;;;13.17;64.55;95367.09;5112925;28;20443;-79
2021/09/22 04:35:07;;;;;;;15.37;9.27;;;;;;;13.12;64.18;95364.88;5113528;28;20521;-79
2021/09/22 04:37:37;;;;;;;11.40;9.50;;;;;;;13.15;64.92;95367.22;5113111;28;20448;-79
2021/09/22 04:40:07;;;;;;;11.03;8.57;;;;;;;13.06;65.07;95359.31;5114734;28;20487;-78
2021/09/22 04:42:34;;;;;;;9.73;8.73;;;;;;;13.09;64.87;95356.41;5116989;28;20442;-79
2021/09/22 04:45:02;;;;;;;13.57;11.50;;;;;;;13.02;65.15;95354.31;5116624;28;20435;-79
2021/09/22 04:47:29;;;;;;;13.73;11.70;;;;;;;12.98;65.29;95350.25;5117266;28;20538;-78
2021/09/22 04:49:58;;;;;;;16.20;12.27;;;;;;;12.97;64.95;95348.56;5117303;28;20451;-78
2021/09/22 04:52:25;;;;;;;11.07;9.77;;;;;;;13.02;65.72;95340.31;5117424;28;20442;-79
2021/09/22 04:54:53;;;;;;;11.40;10.20;;;;;;;12.94;64.22;95340.13;5116978;28;20510;-79
2021/09/22 04:57:20;;;;;;;18.07;11.90;;;;;;;12.85;64.59;95339.13;5117012;28;20508;-79
2021/09/22 04:59:49;;;;;;;13.80;10.87;;;;;;;12.89;65.34;95342.31;5117079;28;20445;-79
2021/09/22 05:02:16;;;;;;;13.13;11.00;;;;;;;12.91;64.96;95349.13;5116973;28;20480;-78
2021/09/22 05:04:43;;;;;;;12.73;10.90;;;;;;;12.85;64.75;95347.03;5116859;28;20443;-79
2021/09/22 05:07:11;;;;;;;14.27;10.60;;;;;;;12.86;65.38;95342.59;5116906;28;20450;-78
2021/09/22 05:09:38;;;;;;;12.30;9.63;;;;;;;12.86;65.92;95346.06;5116732;28;20457;-79
2021/09/22 05:12:05;;;;;;;12.20;9.13;;;;;;;12.82;66.16;95343.81;5116808;28;20449;-79
2021/09/22 05:14:32;;;;;;;11.77;10.50;;;;;;;12.80;66.28;95353.66;5116813;28;20445;-79
2021/09/22 05:16:59;;;;;;;9.87;8.80;;;;;;;12.77;65.87;95354.75;5116505;28;20451;-80
2021/09/22 05:19:27;;;;;;;14.73;10.40;;;;;;;12.74;66.47;95357.66;5080843;28;20460;-79
2021/09/22 05:21:54;;;;;;;10.83;9.80;;;;;;;12.81;66.30;95347.41;5117122;28;20493;-79
2021/09/22 05:24:23;;;;;;;11.37;10.17;;;;;;;12.79;66.10;95352.00;5116643;28;20450;-79
2021/09/22 05:26:52;;;;;;;12.00;9.50;;;;;;;12.79;66.23;95350.19;5116192;28;20970;-80
2021/09/22 05:29:19;;;;;;;12.23;9.40;;;;;;;12.76;65.76;95345.19;5116420;28;20456;-79
2021/09/22 05:31:46;;;;;;;11.77;9.97;;;;;;;12.73;65.00;95345.47;5116048;28;20497;-79
2021/09/22 05:34:13;;;;;;;15.73;8.97;;;;;;;12.71;64.76;95348.19;5116345;28;20444;-79
2021/09/22 05:36:40;;;;;;;12.37;9.33;;;;;;;12.78;64.85;95340.63;5116150;28;20484;-78
2021/09/22 05:39:07;;;;;;;13.70;10.18;;;;;;;12.80;65.15;95346.59;5115505;28;20919;-79
2021/09/22 05:41:36;;;;;;;10.33;9.33;;;;;;;12.90;65.56;95357.16;5116082;28;20318;-79
2021/09/22 05:44:03;;;;;;;12.65;9.13;;;;;;;12.87;63.08;95345.09;5115868;28;20445;-78
2021/09/22 05:46:30;;;;;;;11.77;9.70;;;;;;;13.03;62.84;95347.22;5115393;28;20791;-79
2021/09/22 05:48:57;;;;;;;10.73;9.43;;;;;;;12.89;61.17;95335.25;5116109;28;20615;-88
2021/09/22 05:51:24;;;;;;;12.87;9.33;;;;;;;12.84;62.15;95345.34;5115320;28;20459;-79
2021/09/22 05:53:52;;;;;;;10.33;8.70;;;;;;;12.85;61.44;95349.66;5115622;28;20522;-80
2021/09/22 05:56:19;;;;;;;8.97;8.07;;;;;;;12.76;61.37;95342.56;5116094;28;20529;-79
2021/09/22 05:58:48;;;;;;;9.50;8.50;;;;;;;12.72;61.61;95343.75;5116142;28;20438;-78
2021/09/22 06:01:15;;;;;;;8.80;7.90;;;;;;;12.78;62.93;95343.25;5080015;28;20483;-78
2021/09/22 06:03:42;;;;;;;9.93;8.77;;;;;;;12.86;62.88;95351.31;5080560;28;21212;-81
2021/09/22 06:06:09;;;;;;;11.20;8.87;;;;;;;12.94;63.07;95350.66;5116444;28;21254;-80
2021/09/22 06:08:35;;;;;;;12.30;9.00;;;;;;;12.96;62.07;95357.44;5116446;28;20452;-80
2021/09/22 06:11:03;;;;;;;11.17;8.67;;;;;;;12.95;61.78;95341.78;5116413;28;20449;-78
2021/09/22 06:13:31;;;;;;;9.33;8.30;;;;;;;12.93;61.56;95352.44;5115602;28;20444;-79
2021/09/22 06:16:00;;;;;;;10.50;9.40;;;;;;;13.05;61.55;95339.19;5116024;28;20475;-79
2021/09/22 06:18:27;;;;;;;9.83;8.40;;;;;;;13.05;61.24;95337.41;5113545;28;20456;-79
2021/09/22 06:20:54;;;;;;;9.33;8.07;;;;;;;13.09;60.93;95332.69;5116349;28;20486;-85
2021/09/22 06:23:21;;;;;;;11.60;8.87;;;;;;;13.08;60.73;95339.75;5115435;28;20521;-80
2021/09/22 06:25:47;;;;;;;8.53;7.40;;;;;;;13.05;60.27;95339.19;5115249;28;20999;-80
2021/09/22 06:28:14;;;;;;;10.97;8.77;;;;;;;12.90;60.55;95347.44;5115172;28;20443;-80
2021/09/22 06:30:41;;;;;;;9.40;8.30;;;;;;;12.90;61.21;95342.19;5115390;28;20449;-79
2021/09/22 06:33:10;;;;;;;13.40;7.77;;;;;;;12.86;61.95;95342.59;5115044;28;20968;-87
2021/09/22 06:35:37;;;;;;;11.23;8.73;;;;;;;12.92;60.73;95345.50;5115352;28;20444;-79
2021/09/22 06:38:06;;;;;;;8.67;7.77;;;;;;;12.97;60.88;95347.75;5079112;28;20985;-78
2021/09/22 06:40:33;;;;;;;12.52;9.00;;;;;;;13.07;60.48;95346.00;5114431;28;20447;-81
2021/09/22 06:43:03;;;;;;;9.07;8.03;;;;;;;13.11;59.98;95343.94;5115402;28;20237;-80
2021/09/22 06:45:30;;;;;;;11.23;8.75;;;;;;;13.11;60.30;95346.56;5114219;28;20971;-79
2021/09/22 06:47:57;;;;;;;9.60;8.60;;;;;;;13.16;60.13;95345.19;5114658;28;20197;-79
2021/09/22 06:50:25;;;;;;;8.47;7.67;;;;;;;13.18;59.41;95345.06;5114443;28;20441;-79
2021/09/22 06:52:52;;;;;;;9.37;7.40;;;;;;;13.08;59.82;95347.66;5114393;28;20438;-78
2021/09/22 06:55:19;;;;;;;8.77;7.80;;;;;;;13.03;60.05;95345.44;5114396;28;20942;-79
2021/09/22 06:57:47;;;;;;;9.70;7.27;;;;;;;12.94;60.01;95337.47;5078636;28;20450;-81
2021/09/22 07:00:16;;;;;;;10.07;6.97;;;;;;;12.94;60.84;95348.84;5114428;28;20435;-79
2021/09/22 07:02:43;;;;;;;10.63;7.60;;;;;;;12.87;60.06;95345.09;5094953;28;20503;-79
2021/09/22 07:05:13;;;;;;;10.37;7.60;;;;;;;12.91;60.63;95350.91;5114322;28;20445;-79
2021/09/22 07:07:45;;;;;;;11.00;7.70;;;;;;;12.97;61.58;95351.22;5114834;28;20831;-80
2021/09/22 07:10:13;;;;;;;10.30;8.33;;;;;;;13.00;61.79;95352.75;5113470;28;20801;-80
2021/09/22 07:12:42;;;;;;;9.50;7.03;;;;;;;12.96;60.14;95340.81;5111720;28;20448;-79
2021/09/22 07:15:10;;;;;;;8.50;7.70;;;;;;;12.94;60.68;95359.38;5112770;28;20532;-78
2021/09/22 07:17:38;;;;;;;10.80;8.60;;;;;;;13.01;60.66;95357.06;5113107;28;20517;-79
2021/09/22 07:20:06;;;;;;;14.80;8.47;;;;;;;13.14;60.81;95359.47;5114601;28;20745;-79
2021/09/22 07:22:33;;;;;;;8.93;7.90;;;;;;;13.24;61.21;95355.06;5077834;28;20482;-80
2021/09/22 07:25:02;;;;;;;12.77;7.50;;;;;;;13.38;61.20;95361.78;5095068;28;20452;-79
2021/09/22 07:27:29;;;;;;;8.57;7.67;;;;;;;13.45;60.42;95353.19;5113855;28;20441;-80
2021/09/22 07:29:56;;;;;;;9.37;8.37;;;;;;;13.36;59.60;95347.91;5114183;28;20454;-79
2021/09/22 07:32:25;;;;;;;7.83;6.33;;;;;;;13.38;59.78;95352.06;5114282;28;20436;-80
2021/09/22 07:34:52;;;;;;;9.83;7.53;;;;;;;13.42;60.18;95352.63;5078399;28;20452;-80
2021/09/22 07:37:21;;;;;;;9.80;7.80;;;;;;;13.42;60.12;95350.81;5078410;28;20523;-79
2021/09/22 07:39:48;;;;;;;14.90;7.83;;;;;;;13.42;60.32;95348.19;5113612;28;20446;-79
2021/09/22 07:42:17;;;;;;;9.90;8.90;;;;;;;13.55;60.55;95351.38;5113912;28;20566;-79
2021/09/22 07:44:45;;;;;;;10.87;7.93;;;;;;;13.48;59.02;95347.63;5113812;28;20449;-79
2021/09/22 07:47:13;;;;;;;10.57;7.60;;;;;;;13.48;59.37;95352.06;5113300;28;20975;-79
2021/09/22 07:49:41;;;;;;;9.87;8.40;;;;;;;13.45;58.47;95352.34;5113718;28;20449;-79
2021/09/22 07:52:10;;;;;;;8.20;7.40;;;;;;;13.32;58.97;95350.81;5113462;28;20446;-80
2021/09/22 07:54:37;;;;;;;12.47;9.40;;;;;;;13.19;58.61;95352.00;5113847;28;20515;-79
2021/09/22 07:57:04;;;;;;;10.83;7.40;;;;;;;13.07;58.46;95356.53;5113696;28;20446;-80
2021/09/22 07:59:32;;;;;;;8.87;7.97;;;;;;;13.09;59.42;95356.41;5113345;28;20452;-79
2021/09/22 08:02:01;;;;;;;8.07;6.93;;;;;;;13.06;59.69;95354.88;5113695;28;20505;-78
2021/09/22 08:04:28;;;;;;;12.37;7.93;;;;;;;13.13;60.46;95356.00;5113296;28;20445;-78
2021/09/22 08:06:56;;;;;;;12.53;8.00;;;;;;;13.16;60.49;95354.88;5113458;28;20453;-79
2021/09/22 08:09:23;;;;;;;9.13;8.23;;;;;;;13.19;59.88;95352.00;5113770;28;20464;-79
2021/09/22 08:11:50;;;;;;;11.93;8.10;;;;;;;13.29;60.36;95347.59;5113323;28;20822;-80
2021/09/22 08:14:17;;;;;;;15.00;8.10;;;;;;;13.68;67.30;95345.88;5113779;28;20444;-81
2021/09/22 08:16:45;;;;;;;16.93;8.27;;;;;;;13.71;60.28;95345.59;5117396;28;20935;-81
2021/09/22 08:19:12;;;;;;;18.93;8.13;;;;;;;13.70;59.55;95337.81;5117604;28;20453;-82
2021/09/22 08:21:39;;;;;;;13.10;8.43;;;;;;;13.70;60.77;95324.63;5079622;28;20513;-79
2021/09/22 08:24:06;;;;;;;8.00;7.20;;;;;;;13.71;59.24;95323.66;5116496;28;20445;-80
2021/09/22 08:26:33;;;;;;;11.50;6.73;;;;;;;13.73;58.93;95329.63;5117890;28;20443;-80
2021/09/22 08:29:00;;;;;;;10.20;7.87;;;;;;;13.78;59.23;95320.31;5116522;28;20436;-80
2021/09/22 08:31:30;;;;;;;13.33;9.10;;;;;;;13.70;59.65;95322.00;5115884;28;20443;-80
2021/09/22 08:33:58;;;;;;;10.93;7.93;;;;;;;13.73;57.70;95319.06;5116443;27;20541;-80
2021/09/22 08:36:25;;;;;;;8.33;7.53;;;;;;;13.73;57.69;95324.34;5114723;28;20492;-80
2021/09/22 08:39:05;;;;;;;11.33;9.20;;;;;;;13.73;60.77;95322.53;5116508;28;20877;-78
2021/09/22 08:41:32;;;;;;;11.40;9.17;;;;;;;13.81;61.46;95316.56;5082483;28;20478;-80
2021/09/22 08:44:03;;;;;;;11.40;8.83;;;;;;;13.89;60.35;95319.38;5114657;28;20456;-81
2021/09/22 08:46:32;;;;;;;9.60;8.60;;;;;;;13.91;58.73;95314.78;5108022;28;20572;-78
2021/09/22 08:49:01;;;;;;;17.90;9.70;;;;;;;13.99;57.68;95309.63;5108175;28;20456;-80
2021/09/22 08:51:28;;;;;;;10.87;8.53;;;;;;;14.13;59.02;95314.44;5078428;28;20457;-79
2021/09/22 08:53:58;;;;;;;9.43;8.43;;;;;;;14.21;57.26;95308.50;5111107;28;20475;-80
2021/09/22 08:56:26;;;;;;;11.17;9.10;;;;;;;14.18;56.50;95311.41;5098434;28;20467;-78
2021/09/22 08:58:53;;;;;;;10.03;8.43;;;;;;;14.23;56.64;95317.09;5111097;28;20526;-80
2021/09/22 09:01:22;;;;;;;12.60;9.27;;;;;;;14.15;57.59;95312.50;5100912;28;20474;-79
2021/09/22 09:03:50;;;;;;;12.33;9.37;;;;;;;14.12;57.13;95312.78;5106196;28;20465;-77
2021/09/22 09:06:24;;;;;;;12.23;8.60;;;;;;;14.22;55.60;95300.44;5106449;28;20450;-78
2021/09/22 09:08:53;;;;;;;16.10;8.23;;;;;;;14.15;56.20;95294.03;5116646;28;20449;-79
2021/09/22 09:11:30;;;;;;;14.97;10.93;;;;;;;14.19;56.72;95289.31;5101696;28;20523;-81
2021/09/22 09:14:00;;;;;;;10.50;9.40;;;;;;;14.30;57.06;95291.78;5096609;28;20442;-85
2021/09/22 09:16:35;;;;;;;9.43;8.50;;;;;;;14.41;56.30;95288.13;5105752;28;20832;-85
2021/09/22 09:19:03;;;;;;;9.73;8.50;;;;;;;14.52;56.18;95293.28;5112414;28;20851;-85
2021/09/22 09:21:31;;;;;;;10.37;7.77;;;;;;;14.59;56.28;95297.00;5117184;28;20572;-85
2021/09/22 09:23:59;;;;;;;8.97;8.07;;;;;;;14.60;57.82;95288.13;5116034;28;20440;-81
2021/09/22 09:26:28;;;;;;;12.20;8.63;;;;;;;14.62;55.96;95286.16;5106152;28;20472;-82
2021/09/22 09:28:57;;;;;;;10.17;8.53;;;;;;;14.57;55.25;95272.56;5096296;28;20470;-81
2021/09/22 09:31:31;;;;;;;11.17;8.23;;;;;;;14.67;55.70;95273.34;5110516;28;20626;-81
2021/09/22 09:33:59;;;;;;;9.83;8.67;;;;;;;14.69;55.65;95271.38;5116390;28;20448;-80
2021/09/22 09:36:33;;;;;;;9.80;8.80;;;;;;;14.67;55.04;95270.69;5115811;28;20443;-80
2021/09/22 09:39:07;;;;;;;8.10;7.30;;;;;;;14.65;54.92;95270.00;5097033;28;20439;-81
2021/09/22 09:41:40;;;;;;;8.00;7.20;;;;;;;14.70;55.39;95269.56;5097326;28;20576;-81
2021/09/22 09:44:11;;;;;;;9.37;7.97;;;;;;;14.76;58.70;95272.50;5116135;28;20487;-81
2021/09/22 09:46:39;;;;;;;7.13;6.43;;;;;;;14.66;55.19;95271.69;5115984;28;20466;-81
2021/09/22 09:49:08;;;;;;;10.30;7.80;;;;;;;14.50;54.52;95272.31;5115841;28;20892;-81
2021/09/22 09:51:42;;;;;;;9.57;8.50;;;;;;;14.40;55.43;95265.34;5116191;28;20807;-81
2021/09/22 09:54:13;;;;;;;10.83;8.67;;;;;;;14.43;57.66;95278.28;5115856;28;20448;-82
2021/09/22 09:56:40;;;;;;;13.07;9.03;;;;;;;14.38;56.26;95267.31;5116212;28;20442;-81
2021/09/22 09:59:08;;;;;;;14.10;10.27;;;;;;;14.54;57.59;95262.28;5115947;28;20449;-82
2021/09/22 10:01:41;;;;;;;10.60;8.17;;;;;;;14.62;55.01;95262.38;5115654;28;20445;-84
2021/09/22 10:04:09;;;;;;;10.73;7.53;;;;;;;14.52;54.95;95259.78;5115767;28;20530;-82
2021/09/22 10:06:38;;;;;;;9.27;8.33;;;;;;;14.47;55.67;95266.50;5115412;28;20457;-82
2021/09/22 10:09:06;;;;;;;7.63;6.90;;;;;;;14.47;57.99;95261.22;5116211;28;20451;-82
2021/09/22 10:11:34;;;;;;;8.00;7.20;;;;;;;14.49;55.92;95254.81;5116284;28;20526;-82
2021/09/22 10:14:02;;;;;;;9.70;7.93;;;;;;;14.54;56.87;95262.28;5115511;28;20452;-81
2021/09/22 10:16:31;;;;;;;8.40;7.50;;;;;;;14.49;56.46;95261.91;5116230;28;20454;-80
2021/09/22 10:18:58;;;;;;;9.37;7.80;;;;;;;14.48;56.78;95273.44;5115843;28;20449;-81
2021/09/22 10:21:26;;;;;;;12.97;8.20;;;;;;;14.43;57.03;95254.53;5116054;28;20533;-82
2021/09/22 10:23:56;;;;;;;10.17;8.73;;;;;;;14.41;57.38;95245.88;5115583;28;20446;-81
2021/09/22 10:26:24;;;;;;;10.63;7.67;;;;;;;14.42;57.73;95253.66;5115641;28;20443;-83
2021/09/22 10:28:53;;;;;;;10.50;8.57;;;;;;;14.48;58.13;95252.31;5081110;28;20864;-84
2021/09/22 10:31:35;;;;;;;8.00;7.20;;;;;;;14.59;57.71;95254.75;5116521;28;20914;-84
2021/09/22 10:34:04;;;;;;;9.60;7.90;;;;;;;14.67;57.56;95251.38;5116355;28;20535;-82
2021/09/22 10:36:36;;;;;;;8.10;7.27;;;;;;;14.64;56.77;95252.50;5116450;28;20439;-84
2021/09/22 10:39:06;;;;;;;8.20;7.20;;;;;;;14.59;57.06;95244.19;5115426;28;20488;-83
2021/09/22 10:41:41;;;;;;;8.90;8.00;;;;;;;14.70;57.02;95244.00;5114466;28;20514;-84
2021/09/22 10:44:12;;;;;;;9.00;7.37;;;;;;;14.64;56.68;95238.47;5115391;28;20206;-84
2021/09/22 10:46:39;;;;;;;9.03;7.27;;;;;;;14.65;57.31;95235.69;5115383;28;21025;-83
2021/09/22 10:49:14;;;;;;;10.63;7.87;;;;;;;14.60;59.88;95227.38;5096312;28;20488;-87
2021/09/22 10:51:45;;;;;;;9.13;7.50;;;;;;;14.70;56.63;95225.50;5115136;28;20459;-84
2021/09/22 10:54:16;;;;;;;10.23;8.00;;;;;;;14.66;55.50;95218.03;5114643;28;20470;-84
2021/09/22 10:56:51;;;;;;;11.40;7.67;;;;;;;14.66;56.22;95220.66;5114844;28;20847;-82
2021/09/22 10:59:38;;;;;;;8.90;7.07;;;;;;;14.53;56.40;95224.47;5114594;28;20842;-83
2021/09/22 11:02:07;;;;;;;9.03;7.80;;;;;;;14.48;56.73;95229.38;5114967;28;20500;-83
2021/09/22 11:04:55;;;;;;;8.17;6.97;;;;;;;14.45;57.62;95221.72;5114713;28;20436;-82
2021/09/22 11:07:23;;;;;;;10.67;8.40;;;;;;;14.52;57.00;95222.00;5114895;28;20455;-83
2021/09/22 11:09:52;;;;;;;8.10;7.30;;;;;;;14.57;58.26;95225.03;5095566;28;21004;-83
2021/09/22 11:12:19;;;;;;;12.03;7.80;;;;;;;14.47;57.52;95224.25;5114457;28;20448;-83
2021/09/22 11:14:57;;;;;;;11.53;7.53;;;;;;;14.53;61.14;95234.22;5113716;28;20445;-82
2021/09/22 11:17:27;;;;;;;11.67;8.30;;;;;;;14.46;61.22;95235.78;5112652;28;20441;-84
2021/09/22 11:19:55;;;;;;;8.97;7.00;;;;;;;14.37;57.98;95233.97;5114313;28;20447;-83
2021/09/22 11:22:25;;;;;;;9.20;7.60;;;;;;;14.31;58.43;95230.09;5114146;28;20490;-83
2021/09/22 11:24:58;;;;;;;12.03;7.87;;;;;;;14.46;59.08;95217.31;5114542;28;20443;-82
2021/09/22 11:27:25;;;;;;;10.10;7.30;;;;;;;14.51;58.15;95222.97;5114876;28;20532;-83
2021/09/22 11:29:53;;;;;;;8.33;7.53;;;;;;;14.54;58.34;95217.41;5114931;28;20529;-83